
<gpx xmlns="http://www.topografix.com/GPX/1/1" xmlns:gpxx="http://www.garmin.com/xmlschemas/GpxExtensions/v3" xmlns:xsi="http://www.w3.org/2001/XMLSchema-instance" version="1.1" creator="Adze - https://getadze.com/" xsi:schemaLocation="http://www.topografix.com/GPX/1/1 http://www.topografix.com/GPX/1/1/gpx.xsd http://www.garmin.com/xmlschemas/GpxExtensions/v3 http://www.garmin.com/xmlschemas/GpxExtensionsv3.xsd">
    <metadata>
        <name>Untitled Document</name>
        <link href="http://www.garmin.com"></link>
        <time>2018-03-08T04:40:47.163Z</time>
    </metadata>
    <trk>
        <name>December 2009 - Saturday</name>
        <extensions>
            <gpxx:TrackExtension xmlns:gpxx="http://www.garmin.com/xmlschemas/GpxExtensions/v3">
                <gpxx:DisplayColor>Red</gpxx:DisplayColor>
            </gpxx:TrackExtension>
        </extensions>
        <trkseg>
            <trkpt lon="101.117309" lat="15.262466">
                <ele>102.037109</ele>
                <time>2009-12-19T05:35:40Z</time>
            </trkpt>
            <trkpt lon="101.116683" lat="15.262514">
                <ele>98.191895</ele>
                <time>2009-12-19T05:36:07Z</time>
            </trkpt>
            <trkpt lon="101.116668" lat="15.263426">
                <ele>98.191895</ele>
                <time>2009-12-19T05:36:37Z</time>
            </trkpt>
            <trkpt lon="101.115096" lat="15.266731">
                <ele>117.418213</ele>
                <time>2009-12-19T05:38:45Z</time>
            </trkpt>
            <trkpt lon="101.114499" lat="15.268081">
                <ele>119.340820</ele>
                <time>2009-12-19T05:39:41Z</time>
            </trkpt>
            <trkpt lon="101.113944" lat="15.268863">
                <ele>123.186157</ele>
                <time>2009-12-19T05:40:09Z</time>
            </trkpt>
            <trkpt lon="101.113200" lat="15.268997">
                <ele>119.340820</ele>
                <time>2009-12-19T05:40:21Z</time>
            </trkpt>
            <trkpt lon="101.111091" lat="15.268848">
                <ele>110.208252</ele>
                <time>2009-12-19T05:40:43Z</time>
            </trkpt>
            <trkpt lon="101.109380" lat="15.268642">
                <ele>98.191895</ele>
                <time>2009-12-19T05:41:10Z</time>
            </trkpt>
            <trkpt lon="101.109029" lat="15.268402">
                <ele>97.230469</ele>
                <time>2009-12-19T05:41:20Z</time>
            </trkpt>
            <trkpt lon="101.108989" lat="15.267010">
                <ele>96.269287</ele>
                <time>2009-12-19T05:41:48Z</time>
            </trkpt>
            <trkpt lon="101.108810" lat="15.266538">
                <ele>100.595093</ele>
                <time>2009-12-19T05:42:09Z</time>
            </trkpt>
            <trkpt lon="101.108376" lat="15.266347">
                <ele>95.307739</ele>
                <time>2009-12-19T05:42:21Z</time>
            </trkpt>
            <trkpt lon="101.107933" lat="15.266319">
                <ele>93.385132</ele>
                <time>2009-12-19T05:42:29Z</time>
            </trkpt>
            <trkpt lon="101.107337" lat="15.266522">
                <ele>100.595093</ele>
                <time>2009-12-19T05:42:41Z</time>
            </trkpt>
            <trkpt lon="101.105864" lat="15.266969">
                <ele>100.595093</ele>
                <time>2009-12-19T05:43:09Z</time>
            </trkpt>
            <trkpt lon="101.105196" lat="15.267019">
                <ele>100.595093</ele>
                <time>2009-12-19T05:43:23Z</time>
            </trkpt>
            <trkpt lon="101.103882" lat="15.266985">
                <ele>92.423950</ele>
                <time>2009-12-19T05:43:42Z</time>
            </trkpt>
            <trkpt lon="101.103274" lat="15.266668">
                <ele>93.865845</ele>
                <time>2009-12-19T05:43:53Z</time>
            </trkpt>
            <trkpt lon="101.103175" lat="15.266409">
                <ele>94.827148</ele>
                <time>2009-12-19T05:43:58Z</time>
            </trkpt>
            <trkpt lon="101.103343" lat="15.264678">
                <ele>94.827148</ele>
                <time>2009-12-19T05:44:46Z</time>
            </trkpt>
            <trkpt lon="101.103014" lat="15.264020">
                <ele>100.114502</ele>
                <time>2009-12-19T05:45:04Z</time>
            </trkpt>
            <trkpt lon="101.102505" lat="15.263474">
                <ele>101.075684</ele>
                <time>2009-12-19T05:45:21Z</time>
            </trkpt>
            <trkpt lon="101.102666" lat="15.262266">
                <ele>104.440430</ele>
                <time>2009-12-19T05:45:46Z</time>
            </trkpt>
            <trkpt lon="101.101928" lat="15.261076">
                <ele>109.246948</ele>
                <time>2009-12-19T05:46:19Z</time>
            </trkpt>
            <trkpt lon="101.101748" lat="15.260817">
                <ele>107.324341</ele>
                <time>2009-12-19T05:46:26Z</time>
            </trkpt>
            <trkpt lon="101.101606" lat="15.260385">
                <ele>97.711182</ele>
                <time>2009-12-19T05:46:35Z</time>
            </trkpt>
            <trkpt lon="101.101607" lat="15.260211">
                <ele>100.595093</ele>
                <time>2009-12-19T05:46:38Z</time>
            </trkpt>
            <trkpt lon="101.101607" lat="15.259784">
                <ele>98.191895</ele>
                <time>2009-12-19T05:46:48Z</time>
            </trkpt>
            <trkpt lon="101.101711" lat="15.259026">
                <ele>90.501343</ele>
                <time>2009-12-19T05:47:03Z</time>
            </trkpt>
            <trkpt lon="101.100930" lat="15.258911">
                <ele>87.136597</ele>
                <time>2009-12-19T05:47:18Z</time>
            </trkpt>
            <trkpt lon="101.100654" lat="15.258986">
                <ele>90.981934</ele>
                <time>2009-12-19T05:47:25Z</time>
            </trkpt>
            <trkpt lon="101.100412" lat="15.259227">
                <ele>97.230469</ele>
                <time>2009-12-19T05:48:19Z</time>
            </trkpt>
            <trkpt lon="101.100578" lat="15.258987">
                <ele>92.904541</ele>
                <time>2009-12-19T05:49:33Z</time>
            </trkpt>
            <trkpt lon="101.100143" lat="15.258991">
                <ele>107.805054</ele>
                <time>2009-12-19T05:51:18Z</time>
            </trkpt>
            <trkpt lon="101.099994" lat="15.258987">
                <ele>110.208252</ele>
                <time>2009-12-19T05:51:35Z</time>
            </trkpt>
            <trkpt lon="101.097290" lat="15.258659">
                <ele>80.407471</ele>
                <time>2009-12-19T05:53:25Z</time>
            </trkpt>
            <trkpt lon="101.097328" lat="15.258533">
                <ele>80.407471</ele>
                <time>2009-12-19T05:55:55Z</time>
            </trkpt>
            <trkpt lon="101.097084" lat="15.258509">
                <ele>78.004028</ele>
                <time>2009-12-19T05:56:05Z</time>
            </trkpt>
            <trkpt lon="101.096300" lat="15.263436">
                <ele>70.313477</ele>
                <time>2009-12-19T05:58:16Z</time>
            </trkpt>
            <trkpt lon="101.095478" lat="15.270363">
                <ele>72.716919</ele>
                <time>2009-12-19T06:00:19Z</time>
            </trkpt>
            <trkpt lon="101.095038" lat="15.274809">
                <ele>68.871582</ele>
                <time>2009-12-19T06:01:42Z</time>
            </trkpt>
            <trkpt lon="101.094919" lat="15.276266">
                <ele>63.584351</ele>
                <time>2009-12-19T06:02:09Z</time>
            </trkpt>
            <trkpt lon="101.094609" lat="15.276419">
                <ele>63.584351</ele>
                <time>2009-12-19T06:02:17Z</time>
            </trkpt>
            <trkpt lon="101.092062" lat="15.276210">
                <ele>65.507080</ele>
                <time>2009-12-19T06:02:56Z</time>
            </trkpt>
            <trkpt lon="101.089888" lat="15.276018">
                <ele>66.468262</ele>
                <time>2009-12-19T06:03:29Z</time>
            </trkpt>
            <trkpt lon="101.089651" lat="15.276211">
                <ele>66.948975</ele>
                <time>2009-12-19T06:03:36Z</time>
            </trkpt>
            <trkpt lon="101.089459" lat="15.278572">
                <ele>71.274902</ele>
                <time>2009-12-19T06:04:33Z</time>
            </trkpt>
            <trkpt lon="101.089184" lat="15.281744">
                <ele>73.678223</ele>
                <time>2009-12-19T06:05:34Z</time>
            </trkpt>
            <trkpt lon="101.089068" lat="15.282874">
                <ele>73.678223</ele>
                <time>2009-12-19T06:05:59Z</time>
            </trkpt>
            <trkpt lon="101.088711" lat="15.282909">
                <ele>72.716919</ele>
                <time>2009-12-19T06:06:10Z</time>
            </trkpt>
            <trkpt lon="101.087009" lat="15.283720">
                <ele>73.197632</ele>
                <time>2009-12-19T06:06:52Z</time>
            </trkpt>
            <trkpt lon="101.086430" lat="15.283818">
                <ele>71.274902</ele>
                <time>2009-12-19T06:07:04Z</time>
            </trkpt>
            <trkpt lon="101.086143" lat="15.284173">
                <ele>67.910278</ele>
                <time>2009-12-19T06:07:13Z</time>
            </trkpt>
            <trkpt lon="101.086199" lat="15.285473">
                <ele>72.236206</ele>
                <time>2009-12-19T06:07:56Z</time>
            </trkpt>
            <trkpt lon="101.086889" lat="15.287497">
                <ele>72.236206</ele>
                <time>2009-12-19T06:10:03Z</time>
            </trkpt>
            <trkpt lon="101.086913" lat="15.287663">
                <ele>70.794190</ele>
                <time>2009-12-19T06:10:15Z</time>
            </trkpt>
            <trkpt lon="101.086842" lat="15.287415">
                <ele>73.678223</ele>
                <time>2009-12-19T06:11:07Z</time>
            </trkpt>
            <trkpt lon="101.086430" lat="15.287612">
                <ele>74.639526</ele>
                <time>2009-12-19T06:11:24Z</time>
            </trkpt>
            <trkpt lon="101.084825" lat="15.288208">
                <ele>75.120239</ele>
                <time>2009-12-19T06:12:39Z</time>
            </trkpt>
            <trkpt lon="101.084498" lat="15.289026">
                <ele>74.639526</ele>
                <time>2009-12-19T06:14:06Z</time>
            </trkpt>
            <trkpt lon="101.082360" lat="15.289459">
                <ele>79.446045</ele>
                <time>2009-12-19T06:15:24Z</time>
            </trkpt>
            <trkpt lon="101.082013" lat="15.289666">
                <ele>78.965454</ele>
                <time>2009-12-19T06:15:42Z</time>
            </trkpt>
            <trkpt lon="101.082665" lat="15.291584">
                <ele>80.888184</ele>
                <time>2009-12-19T06:16:51Z</time>
            </trkpt>
            <trkpt lon="101.082446" lat="15.291673">
                <ele>79.926636</ele>
                <time>2009-12-19T06:16:59Z</time>
            </trkpt>
            <trkpt lon="101.082377" lat="15.291830">
                <ele>79.926636</ele>
                <time>2009-12-19T06:17:05Z</time>
            </trkpt>
            <trkpt lon="101.082437" lat="15.292129">
                <ele>82.330078</ele>
                <time>2009-12-19T06:18:29Z</time>
            </trkpt>
            <trkpt lon="101.082378" lat="15.292005">
                <ele>79.446045</ele>
                <time>2009-12-19T06:20:25Z</time>
            </trkpt>
            <trkpt lon="101.082322" lat="15.292102">
                <ele>81.368774</ele>
                <time>2009-12-19T06:21:07Z</time>
            </trkpt>
            <trkpt lon="101.082126" lat="15.291984">
                <ele>79.926636</ele>
                <time>2009-12-19T06:21:17Z</time>
            </trkpt>
            <trkpt lon="101.082107" lat="15.291689">
                <ele>78.965454</ele>
                <time>2009-12-19T06:21:33Z</time>
            </trkpt>
            <trkpt lon="101.080249" lat="15.291922">
                <ele>77.523438</ele>
                <time>2009-12-19T06:22:26Z</time>
            </trkpt>
            <trkpt lon="101.079263" lat="15.294292">
                <ele>79.446045</ele>
                <time>2009-12-19T06:23:38Z</time>
            </trkpt>
            <trkpt lon="101.079297" lat="15.296672">
                <ele>88.098022</ele>
                <time>2009-12-19T06:25:24Z</time>
            </trkpt>
            <trkpt lon="101.079536" lat="15.297295">
                <ele>93.385132</ele>
                <time>2009-12-19T06:27:02Z</time>
            </trkpt>
            <trkpt lon="101.080180" lat="15.298149">
                <ele>91.943237</ele>
                <time>2009-12-19T06:27:38Z</time>
            </trkpt>
            <trkpt lon="101.080228" lat="15.299421">
                <ele>91.943237</ele>
                <time>2009-12-19T06:28:07Z</time>
            </trkpt>
            <trkpt lon="101.080028" lat="15.299813">
                <ele>93.865845</ele>
                <time>2009-12-19T06:28:18Z</time>
            </trkpt>
            <trkpt lon="101.080644" lat="15.301003">
                <ele>94.346558</ele>
                <time>2009-12-19T06:28:50Z</time>
            </trkpt>
            <trkpt lon="101.081944" lat="15.302510">
                <ele>94.827148</ele>
                <time>2009-12-19T06:29:43Z</time>
            </trkpt>
            <trkpt lon="101.081026" lat="15.303065">
                <ele>99.153076</ele>
                <time>2009-12-19T06:30:13Z</time>
            </trkpt>
            <trkpt lon="101.080543" lat="15.303395">
                <ele>98.672485</ele>
                <time>2009-12-19T06:30:28Z</time>
            </trkpt>
            <trkpt lon="101.080376" lat="15.303893">
                <ele>96.269287</ele>
                <time>2009-12-19T06:30:41Z</time>
            </trkpt>
            <trkpt lon="101.080295" lat="15.304397">
                <ele>95.307739</ele>
                <time>2009-12-19T06:30:55Z</time>
            </trkpt>
            <trkpt lon="101.080503" lat="15.304851">
                <ele>93.385132</ele>
                <time>2009-12-19T06:31:08Z</time>
            </trkpt>
            <trkpt lon="101.080804" lat="15.305159">
                <ele>92.904541</ele>
                <time>2009-12-19T06:31:19Z</time>
            </trkpt>
            <trkpt lon="101.080491" lat="15.306592">
                <ele>95.307739</ele>
                <time>2009-12-19T06:32:06Z</time>
            </trkpt>
            <trkpt lon="101.080208" lat="15.307316">
                <ele>94.346558</ele>
                <time>2009-12-19T06:32:23Z</time>
            </trkpt>
            <trkpt lon="101.080179" lat="15.307904">
                <ele>94.346558</ele>
                <time>2009-12-19T06:32:28Z</time>
            </trkpt>
            <trkpt lon="101.079495" lat="15.308055">
                <ele>93.865845</ele>
                <time>2009-12-19T06:32:46Z</time>
            </trkpt>
            <trkpt lon="101.076839" lat="15.309498">
                <ele>94.827148</ele>
                <time>2009-12-19T06:33:36Z</time>
            </trkpt>
            <trkpt lon="101.075453" lat="15.310223">
                <ele>93.865845</ele>
                <time>2009-12-19T06:33:57Z</time>
            </trkpt>
            <trkpt lon="101.074295" lat="15.310349">
                <ele>92.904541</ele>
                <time>2009-12-19T06:34:12Z</time>
            </trkpt>
            <trkpt lon="101.072973" lat="15.310382">
                <ele>91.943237</ele>
                <time>2009-12-19T06:34:30Z</time>
            </trkpt>
            <trkpt lon="101.071324" lat="15.310174">
                <ele>92.423950</ele>
                <time>2009-12-19T06:34:56Z</time>
            </trkpt>
            <trkpt lon="101.069108" lat="15.309732">
                <ele>89.539917</ele>
                <time>2009-12-19T06:35:28Z</time>
            </trkpt>
            <trkpt lon="101.063592" lat="15.309105">
                <ele>90.020630</ele>
                <time>2009-12-19T06:36:46Z</time>
            </trkpt>
            <trkpt lon="101.060779" lat="15.309731">
                <ele>90.981934</ele>
                <time>2009-12-19T06:37:37Z</time>
            </trkpt>
            <trkpt lon="101.059999" lat="15.309918">
                <ele>90.020630</ele>
                <time>2009-12-19T06:37:58Z</time>
            </trkpt>
            <trkpt lon="101.059945" lat="15.310650">
                <ele>88.098022</ele>
                <time>2009-12-19T06:38:05Z</time>
            </trkpt>
            <trkpt lon="101.059728" lat="15.310944">
                <ele>88.578735</ele>
                <time>2009-12-19T06:38:15Z</time>
            </trkpt>
            <trkpt lon="101.059380" lat="15.311148">
                <ele>89.059326</ele>
                <time>2009-12-19T06:38:27Z</time>
            </trkpt>
            <trkpt lon="101.059446" lat="15.311405">
                <ele>88.578735</ele>
                <time>2009-12-19T06:38:38Z</time>
            </trkpt>
            <trkpt lon="101.059157" lat="15.312260">
                <ele>94.827148</ele>
                <time>2009-12-19T06:39:27Z</time>
            </trkpt>
            <trkpt lon="101.058684" lat="15.312908">
                <ele>94.827148</ele>
                <time>2009-12-19T06:39:54Z</time>
            </trkpt>
            <trkpt lon="101.058423" lat="15.313321">
                <ele>94.346558</ele>
                <time>2009-12-19T06:40:08Z</time>
            </trkpt>
            <trkpt lon="101.058521" lat="15.313529">
                <ele>92.904541</ele>
                <time>2009-12-19T06:40:15Z</time>
            </trkpt>
            <trkpt lon="101.058381" lat="15.314432">
                <ele>90.981934</ele>
                <time>2009-12-19T06:40:37Z</time>
            </trkpt>
            <trkpt lon="101.057845" lat="15.314955">
                <ele>91.943237</ele>
                <time>2009-12-19T06:40:56Z</time>
            </trkpt>
            <trkpt lon="101.057568" lat="15.315587">
                <ele>90.981934</ele>
                <time>2009-12-19T06:41:14Z</time>
            </trkpt>
            <trkpt lon="101.057417" lat="15.315492">
                <ele>91.943237</ele>
                <time>2009-12-19T06:41:24Z</time>
            </trkpt>
            <trkpt lon="101.057410" lat="15.315439">
                <ele>91.943237</ele>
                <time>2009-12-19T06:41:31Z</time>
            </trkpt>
            <trkpt lon="101.057510" lat="15.316379">
                <ele>88.578735</ele>
                <time>2009-12-19T06:42:09Z</time>
            </trkpt>
            <trkpt lon="101.057413" lat="15.316857">
                <ele>87.136597</ele>
                <time>2009-12-19T06:42:25Z</time>
            </trkpt>
            <trkpt lon="101.057119" lat="15.317284">
                <ele>86.175293</ele>
                <time>2009-12-19T06:42:48Z</time>
            </trkpt>
            <trkpt lon="101.057133" lat="15.317562">
                <ele>89.059326</ele>
                <time>2009-12-19T06:43:31Z</time>
            </trkpt>
            <trkpt lon="101.057010" lat="15.318022">
                <ele>86.656006</ele>
                <time>2009-12-19T06:44:10Z</time>
            </trkpt>
            <trkpt lon="101.057305" lat="15.319453">
                <ele>87.136597</ele>
                <time>2009-12-19T06:45:03Z</time>
            </trkpt>
            <trkpt lon="101.057224" lat="15.319647">
                <ele>87.617188</ele>
                <time>2009-12-19T06:45:12Z</time>
            </trkpt>
            <trkpt lon="101.057761" lat="15.319811">
                <ele>87.136597</ele>
                <time>2009-12-19T06:45:29Z</time>
            </trkpt>
            <trkpt lon="101.057781" lat="15.320104">
                <ele>86.656006</ele>
                <time>2009-12-19T06:45:43Z</time>
            </trkpt>
            <trkpt lon="101.058044" lat="15.320190">
                <ele>87.136597</ele>
                <time>2009-12-19T06:45:54Z</time>
            </trkpt>
            <trkpt lon="101.058135" lat="15.321085">
                <ele>87.617188</ele>
                <time>2009-12-19T06:46:31Z</time>
            </trkpt>
            <trkpt lon="101.057778" lat="15.321291">
                <ele>88.578735</ele>
                <time>2009-12-19T06:46:47Z</time>
            </trkpt>
            <trkpt lon="101.057514" lat="15.322088">
                <ele>88.098022</ele>
                <time>2009-12-19T06:47:12Z</time>
            </trkpt>
            <trkpt lon="101.056035" lat="15.322808">
                <ele>85.213989</ele>
                <time>2009-12-19T06:47:46Z</time>
            </trkpt>
            <trkpt lon="101.055469" lat="15.323404">
                <ele>86.175293</ele>
                <time>2009-12-19T06:48:02Z</time>
            </trkpt>
            <trkpt lon="101.054061" lat="15.326138">
                <ele>90.981934</ele>
                <time>2009-12-19T07:12:46Z</time>
            </trkpt>
            <trkpt lon="101.053695" lat="15.327173">
                <ele>91.462524</ele>
                <time>2009-12-19T07:13:24Z</time>
            </trkpt>
            <trkpt lon="101.052868" lat="15.328428">
                <ele>93.385132</ele>
                <time>2009-12-19T07:14:00Z</time>
            </trkpt>
            <trkpt lon="101.046820" lat="15.325912">
                <ele>100.595093</ele>
                <time>2009-12-19T07:16:05Z</time>
            </trkpt>
            <trkpt lon="101.045079" lat="15.325540">
                <ele>97.230469</ele>
                <time>2009-12-19T07:16:33Z</time>
            </trkpt>
            <trkpt lon="101.043367" lat="15.325781">
                <ele>92.423950</ele>
                <time>2009-12-19T07:16:55Z</time>
            </trkpt>
            <trkpt lon="101.040782" lat="15.325500">
                <ele>88.098022</ele>
                <time>2009-12-19T07:17:28Z</time>
            </trkpt>
            <trkpt lon="101.039996" lat="15.325268">
                <ele>88.578735</ele>
                <time>2009-12-19T07:17:40Z</time>
            </trkpt>
            <trkpt lon="101.039687" lat="15.324745">
                <ele>89.059326</ele>
                <time>2009-12-19T07:17:52Z</time>
            </trkpt>
            <trkpt lon="101.039500" lat="15.324677">
                <ele>89.539917</ele>
                <time>2009-12-19T07:17:57Z</time>
            </trkpt>
            <trkpt lon="101.039321" lat="15.324762">
                <ele>89.059326</ele>
                <time>2009-12-19T07:18:03Z</time>
            </trkpt>
            <trkpt lon="101.039218" lat="15.324654">
                <ele>89.539917</ele>
                <time>2009-12-19T07:18:10Z</time>
            </trkpt>
            <trkpt lon="101.038923" lat="15.323989">
                <ele>90.020630</ele>
                <time>2009-12-19T07:18:23Z</time>
            </trkpt>
            <trkpt lon="101.038664" lat="15.323115">
                <ele>90.020630</ele>
                <time>2009-12-19T07:18:38Z</time>
            </trkpt>
            <trkpt lon="101.038161" lat="15.322637">
                <ele>90.020630</ele>
                <time>2009-12-19T07:18:49Z</time>
            </trkpt>
            <trkpt lon="101.037453" lat="15.322107">
                <ele>88.098022</ele>
                <time>2009-12-19T07:19:03Z</time>
            </trkpt>
            <trkpt lon="101.037232" lat="15.322110">
                <ele>88.098022</ele>
                <time>2009-12-19T07:19:07Z</time>
            </trkpt>
            <trkpt lon="101.037051" lat="15.322164">
                <ele>87.617188</ele>
                <time>2009-12-19T07:19:10Z</time>
            </trkpt>
            <trkpt lon="101.036735" lat="15.321965">
                <ele>87.136597</ele>
                <time>2009-12-19T07:19:17Z</time>
            </trkpt>
            <trkpt lon="101.036978" lat="15.321200">
                <ele>88.578735</ele>
                <time>2009-12-19T07:19:31Z</time>
            </trkpt>
            <trkpt lon="101.036955" lat="15.320866">
                <ele>89.059326</ele>
                <time>2009-12-19T07:19:37Z</time>
            </trkpt>
            <trkpt lon="101.036918" lat="15.320405">
                <ele>89.059326</ele>
                <time>2009-12-19T07:19:46Z</time>
            </trkpt>
            <trkpt lon="101.036630" lat="15.320334">
                <ele>89.059326</ele>
                <time>2009-12-19T07:19:51Z</time>
            </trkpt>
            <trkpt lon="101.036415" lat="15.319358">
                <ele>89.059326</ele>
                <time>2009-12-19T07:20:12Z</time>
            </trkpt>
            <trkpt lon="101.036247" lat="15.319096">
                <ele>88.578735</ele>
                <time>2009-12-19T07:20:22Z</time>
            </trkpt>
            <trkpt lon="101.035795" lat="15.318995">
                <ele>90.020630</ele>
                <time>2009-12-19T07:20:41Z</time>
            </trkpt>
            <trkpt lon="101.035376" lat="15.318380">
                <ele>90.981934</ele>
                <time>2009-12-19T07:20:57Z</time>
            </trkpt>
            <trkpt lon="101.034827" lat="15.317992">
                <ele>91.462524</ele>
                <time>2009-12-19T07:21:10Z</time>
            </trkpt>
            <trkpt lon="101.034681" lat="15.317768">
                <ele>91.943237</ele>
                <time>2009-12-19T07:21:15Z</time>
            </trkpt>
            <trkpt lon="101.034292" lat="15.317618">
                <ele>92.904541</ele>
                <time>2009-12-19T07:21:23Z</time>
            </trkpt>
            <trkpt lon="101.033786" lat="15.317009">
                <ele>95.307739</ele>
                <time>2009-12-19T07:21:40Z</time>
            </trkpt>
            <trkpt lon="101.033340" lat="15.316236">
                <ele>94.827148</ele>
                <time>2009-12-19T07:21:57Z</time>
            </trkpt>
            <trkpt lon="101.033298" lat="15.315923">
                <ele>94.827148</ele>
                <time>2009-12-19T07:22:07Z</time>
            </trkpt>
            <trkpt lon="101.033716" lat="15.316874">
                <ele>94.827148</ele>
                <time>2009-12-19T07:22:38Z</time>
            </trkpt>
            <trkpt lon="101.033664" lat="15.317196">
                <ele>97.230469</ele>
                <time>2009-12-19T07:22:48Z</time>
            </trkpt>
            <trkpt lon="101.033077" lat="15.317217">
                <ele>100.595093</ele>
                <time>2009-12-19T07:23:13Z</time>
            </trkpt>
            <trkpt lon="101.031844" lat="15.317246">
                <ele>101.556397</ele>
                <time>2009-12-19T07:24:03Z</time>
            </trkpt>
            <trkpt lon="101.030108" lat="15.316878">
                <ele>100.114502</ele>
                <time>2009-12-19T07:24:44Z</time>
            </trkpt>
            <trkpt lon="101.029661" lat="15.316454">
                <ele>101.075684</ele>
                <time>2009-12-19T07:25:00Z</time>
            </trkpt>
            <trkpt lon="101.029462" lat="15.316403">
                <ele>101.556397</ele>
                <time>2009-12-19T07:25:05Z</time>
            </trkpt>
            <trkpt lon="101.028320" lat="15.315600">
                <ele>101.556397</ele>
                <time>2009-12-19T07:25:35Z</time>
            </trkpt>
            <trkpt lon="101.028065" lat="15.315653">
                <ele>101.556397</ele>
                <time>2009-12-19T07:25:42Z</time>
            </trkpt>
            <trkpt lon="101.027141" lat="15.315421">
                <ele>106.843628</ele>
                <time>2009-12-19T07:26:09Z</time>
            </trkpt>
            <trkpt lon="101.025835" lat="15.315641">
                <ele>107.324341</ele>
                <time>2009-12-19T07:26:39Z</time>
            </trkpt>
            <trkpt lon="101.025557" lat="15.315945">
                <ele>107.324341</ele>
                <time>2009-12-19T07:26:48Z</time>
            </trkpt>
            <trkpt lon="101.023562" lat="15.319467">
                <ele>124.628052</ele>
                <time>2009-12-19T07:29:07Z</time>
            </trkpt>
            <trkpt lon="101.023582" lat="15.319807">
                <ele>125.589355</ele>
                <time>2009-12-19T07:29:20Z</time>
            </trkpt>
            <trkpt lon="101.023555" lat="15.320949">
                <ele>120.782837</ele>
                <time>2009-12-19T07:29:47Z</time>
            </trkpt>
            <trkpt lon="101.023044" lat="15.323919">
                <ele>110.688843</ele>
                <time>2009-12-19T07:30:32Z</time>
            </trkpt>
            <trkpt lon="101.023059" lat="15.325470">
                <ele>106.843628</ele>
                <time>2009-12-19T07:30:55Z</time>
            </trkpt>
            <trkpt lon="101.023138" lat="15.326062">
                <ele>102.037109</ele>
                <time>2009-12-19T07:31:05Z</time>
            </trkpt>
            <trkpt lon="101.022649" lat="15.327326">
                <ele>99.633789</ele>
                <time>2009-12-19T07:31:27Z</time>
            </trkpt>
            <trkpt lon="101.022160" lat="15.328088">
                <ele>97.711182</ele>
                <time>2009-12-19T07:31:42Z</time>
            </trkpt>
            <trkpt lon="101.020379" lat="15.327072">
                <ele>97.230469</ele>
                <time>2009-12-19T07:32:18Z</time>
            </trkpt>
            <trkpt lon="101.019688" lat="15.326168">
                <ele>99.153076</ele>
                <time>2009-12-19T07:32:37Z</time>
            </trkpt>
            <trkpt lon="101.019618" lat="15.325384">
                <ele>100.595093</ele>
                <time>2009-12-19T07:32:52Z</time>
            </trkpt>
            <trkpt lon="101.019614" lat="15.324853">
                <ele>100.595093</ele>
                <time>2009-12-19T07:33:02Z</time>
            </trkpt>
            <trkpt lon="101.019324" lat="15.324295">
                <ele>98.672485</ele>
                <time>2009-12-19T07:33:12Z</time>
            </trkpt>
            <trkpt lon="101.019063" lat="15.324095">
                <ele>98.191895</ele>
                <time>2009-12-19T07:33:17Z</time>
            </trkpt>
            <trkpt lon="101.018757" lat="15.323741">
                <ele>96.749878</ele>
                <time>2009-12-19T07:33:24Z</time>
            </trkpt>
            <trkpt lon="101.017097" lat="15.320292">
                <ele>96.269287</ele>
                <time>2009-12-19T07:34:28Z</time>
            </trkpt>
            <trkpt lon="101.017048" lat="15.319474">
                <ele>98.672485</ele>
                <time>2009-12-19T07:34:49Z</time>
            </trkpt>
            <trkpt lon="101.016798" lat="15.317670">
                <ele>95.788452</ele>
                <time>2009-12-19T07:35:20Z</time>
            </trkpt>
            <trkpt lon="101.016170" lat="15.314121">
                <ele>97.230469</ele>
                <time>2009-12-19T07:36:15Z</time>
            </trkpt>
            <trkpt lon="101.016190" lat="15.313272">
                <ele>97.711182</ele>
                <time>2009-12-19T07:36:29Z</time>
            </trkpt>
            <trkpt lon="101.016833" lat="15.311445">
                <ele>98.672485</ele>
                <time>2009-12-19T07:37:03Z</time>
            </trkpt>
            <trkpt lon="101.016629" lat="15.310923">
                <ele>98.672485</ele>
                <time>2009-12-19T07:37:06Z</time>
            </trkpt>
            <trkpt lon="101.016846" lat="15.310780">
                <ele>103.959717</ele>
                <time>2009-12-19T07:37:20Z</time>
            </trkpt>
            <trkpt lon="101.010550" lat="15.313998">
                <ele>109.246948</ele>
                <time>2009-12-19T07:39:21Z</time>
            </trkpt>
            <trkpt lon="101.010450" lat="15.313873">
                <ele>108.766235</ele>
                <time>2009-12-19T07:39:26Z</time>
            </trkpt>
            <trkpt lon="101.010687" lat="15.313921">
                <ele>106.363037</ele>
                <time>2009-12-19T07:39:34Z</time>
            </trkpt>
            <trkpt lon="101.010523" lat="15.312913">
                <ele>106.363037</ele>
                <time>2009-12-19T07:39:48Z</time>
            </trkpt>
            <trkpt lon="101.010116" lat="15.312421">
                <ele>106.363037</ele>
                <time>2009-12-19T07:40:08Z</time>
            </trkpt>
            <trkpt lon="101.010105" lat="15.311941">
                <ele>109.727661</ele>
                <time>2009-12-19T07:40:23Z</time>
            </trkpt>
            <trkpt lon="101.010551" lat="15.311505">
                <ele>115.976196</ele>
                <time>2009-12-19T07:40:49Z</time>
            </trkpt>
            <trkpt lon="101.010944" lat="15.311219">
                <ele>116.937500</ele>
                <time>2009-12-19T07:41:06Z</time>
            </trkpt>
            <trkpt lon="101.011147" lat="15.311041">
                <ele>117.418213</ele>
                <time>2009-12-19T07:41:13Z</time>
            </trkpt>
            <trkpt lon="101.010765" lat="15.310386">
                <ele>116.456787</ele>
                <time>2009-12-19T07:41:44Z</time>
            </trkpt>
            <trkpt lon="101.010492" lat="15.310281">
                <ele>118.379395</ele>
                <time>2009-12-19T07:41:55Z</time>
            </trkpt>
            <trkpt lon="101.010419" lat="15.310084">
                <ele>118.860107</ele>
                <time>2009-12-19T07:42:01Z</time>
            </trkpt>
            <trkpt lon="101.010278" lat="15.309838">
                <ele>117.418213</ele>
                <time>2009-12-19T07:42:12Z</time>
            </trkpt>
            <trkpt lon="101.009939" lat="15.309648">
                <ele>116.456787</ele>
                <time>2009-12-19T07:42:22Z</time>
            </trkpt>
            <trkpt lon="101.008855" lat="15.308642">
                <ele>107.805054</ele>
                <time>2009-12-19T07:43:00Z</time>
            </trkpt>
            <trkpt lon="101.008978" lat="15.308117">
                <ele>105.401733</ele>
                <time>2009-12-19T07:43:17Z</time>
            </trkpt>
            <trkpt lon="101.009551" lat="15.308293">
                <ele>107.805054</ele>
                <time>2009-12-19T07:45:12Z</time>
            </trkpt>
            <trkpt lon="101.010169" lat="15.308236">
                <ele>108.766235</ele>
                <time>2009-12-19T07:45:26Z</time>
            </trkpt>
            <trkpt lon="101.010943" lat="15.308329">
                <ele>106.843628</ele>
                <time>2009-12-19T07:45:44Z</time>
            </trkpt>
            <trkpt lon="101.011652" lat="15.308115">
                <ele>105.882446</ele>
                <time>2009-12-19T07:46:05Z</time>
            </trkpt>
            <trkpt lon="101.012102" lat="15.307719">
                <ele>102.037109</ele>
                <time>2009-12-19T07:46:20Z</time>
            </trkpt>
            <trkpt lon="101.012819" lat="15.307665">
                <ele>97.711182</ele>
                <time>2009-12-19T07:46:36Z</time>
            </trkpt>
            <trkpt lon="101.013004" lat="15.307741">
                <ele>100.595093</ele>
                <time>2009-12-19T07:46:40Z</time>
            </trkpt>
            <trkpt lon="101.013645" lat="15.308257">
                <ele>102.037109</ele>
                <time>2009-12-19T07:46:57Z</time>
            </trkpt>
            <trkpt lon="101.013631" lat="15.308597">
                <ele>102.998291</ele>
                <time>2009-12-19T07:47:08Z</time>
            </trkpt>
            <trkpt lon="101.013399" lat="15.308907">
                <ele>105.401733</ele>
                <time>2009-12-19T07:47:32Z</time>
            </trkpt>
            <trkpt lon="101.013619" lat="15.308507">
                <ele>102.037109</ele>
                <time>2009-12-19T07:48:09Z</time>
            </trkpt>
            <trkpt lon="101.013449" lat="15.308133">
                <ele>101.075684</ele>
                <time>2009-12-19T07:48:20Z</time>
            </trkpt>
            <trkpt lon="101.012746" lat="15.307646">
                <ele>103.959717</ele>
                <time>2009-12-19T07:48:51Z</time>
            </trkpt>
            <trkpt lon="101.012994" lat="15.307792">
                <ele>97.230469</ele>
                <time>2009-12-19T07:49:10Z</time>
            </trkpt>
            <trkpt lon="101.013044" lat="15.307769">
                <ele>100.114502</ele>
                <time>2009-12-19T07:49:19Z</time>
            </trkpt>
            <trkpt lon="101.013164" lat="15.307736">
                <ele>99.633789</ele>
                <time>2009-12-19T07:49:30Z</time>
            </trkpt>
            <trkpt lon="101.013201" lat="15.307583">
                <ele>99.153076</ele>
                <time>2009-12-19T07:49:58Z</time>
            </trkpt>
            <trkpt lon="101.013445" lat="15.307596">
                <ele>98.191895</ele>
                <time>2009-12-19T07:50:09Z</time>
            </trkpt>
            <trkpt lon="101.014405" lat="15.306803">
                <ele>101.556397</ele>
                <time>2009-12-19T07:50:47Z</time>
            </trkpt>
            <trkpt lon="101.014474" lat="15.306738">
                <ele>101.075684</ele>
                <time>2009-12-19T07:50:52Z</time>
            </trkpt>
            <trkpt lon="101.015110" lat="15.305884">
                <ele>105.882446</ele>
                <time>2009-12-19T07:51:38Z</time>
            </trkpt>
            <trkpt lon="101.015277" lat="15.305028">
                <ele>111.650269</ele>
                <time>2009-12-19T07:52:22Z</time>
            </trkpt>
            <trkpt lon="101.015869" lat="15.303929">
                <ele>107.324341</ele>
                <time>2009-12-19T07:53:04Z</time>
            </trkpt>
            <trkpt lon="101.016070" lat="15.303681">
                <ele>102.517700</ele>
                <time>2009-12-19T07:53:14Z</time>
            </trkpt>
            <trkpt lon="101.016636" lat="15.303522">
                <ele>103.479004</ele>
                <time>2009-12-19T07:53:33Z</time>
            </trkpt>
            <trkpt lon="101.016801" lat="15.303543">
                <ele>100.595093</ele>
                <time>2009-12-19T07:53:39Z</time>
            </trkpt>
            <trkpt lon="101.016925" lat="15.303173">
                <ele>97.230469</ele>
                <time>2009-12-19T07:53:51Z</time>
            </trkpt>
            <trkpt lon="101.016692" lat="15.302592">
                <ele>98.672485</ele>
                <time>2009-12-19T07:54:08Z</time>
            </trkpt>
            <trkpt lon="101.017248" lat="15.302083">
                <ele>102.998291</ele>
                <time>2009-12-19T07:54:31Z</time>
            </trkpt>
            <trkpt lon="101.017353" lat="15.301823">
                <ele>105.401733</ele>
                <time>2009-12-19T07:54:46Z</time>
            </trkpt>
            <trkpt lon="101.017690" lat="15.301325">
                <ele>103.479004</ele>
                <time>2009-12-19T07:55:10Z</time>
            </trkpt>
            <trkpt lon="101.017791" lat="15.300866">
                <ele>103.959717</ele>
                <time>2009-12-19T07:55:29Z</time>
            </trkpt>
            <trkpt lon="101.018175" lat="15.300357">
                <ele>104.440430</ele>
                <time>2009-12-19T07:55:48Z</time>
            </trkpt>
            <trkpt lon="101.018123" lat="15.299963">
                <ele>108.766235</ele>
                <time>2009-12-19T07:56:17Z</time>
            </trkpt>
            <trkpt lon="101.017943" lat="15.299774">
                <ele>112.130981</ele>
                <time>2009-12-19T07:56:31Z</time>
            </trkpt>
            <trkpt lon="101.017758" lat="15.299595">
                <ele>109.727661</ele>
                <time>2009-12-19T07:56:44Z</time>
            </trkpt>
            <trkpt lon="101.017716" lat="15.298877">
                <ele>119.821411</ele>
                <time>2009-12-19T07:57:30Z</time>
            </trkpt>
            <trkpt lon="101.017426" lat="15.298338">
                <ele>122.705444</ele>
                <time>2009-12-19T07:58:04Z</time>
            </trkpt>
            <trkpt lon="101.017470" lat="15.297567">
                <ele>121.263550</ele>
                <time>2009-12-19T07:58:33Z</time>
            </trkpt>
            <trkpt lon="101.017914" lat="15.297232">
                <ele>119.821411</ele>
                <time>2009-12-19T07:58:52Z</time>
            </trkpt>
            <trkpt lon="101.017892" lat="15.297158">
                <ele>119.821411</ele>
                <time>2009-12-19T07:58:58Z</time>
            </trkpt>
            <trkpt lon="101.017264" lat="15.297154">
                <ele>120.782837</ele>
                <time>2009-12-19T07:59:20Z</time>
            </trkpt>
            <trkpt lon="101.016532" lat="15.297449">
                <ele>117.898804</ele>
                <time>2009-12-19T07:59:41Z</time>
            </trkpt>
            <trkpt lon="101.016185" lat="15.297795">
                <ele>119.821411</ele>
                <time>2009-12-19T07:59:58Z</time>
            </trkpt>
            <trkpt lon="101.015343" lat="15.297575">
                <ele>122.224731</ele>
                <time>2009-12-19T08:00:33Z</time>
            </trkpt>
            <trkpt lon="101.015002" lat="15.296801">
                <ele>122.705444</ele>
                <time>2009-12-19T08:01:09Z</time>
            </trkpt>
            <trkpt lon="101.014983" lat="15.296413">
                <ele>126.550659</ele>
                <time>2009-12-19T08:01:27Z</time>
            </trkpt>
            <trkpt lon="101.014846" lat="15.295982">
                <ele>126.550659</ele>
                <time>2009-12-19T08:01:47Z</time>
            </trkpt>
            <trkpt lon="101.014547" lat="15.295766">
                <ele>132.799316</ele>
                <time>2009-12-19T08:02:36Z</time>
            </trkpt>
            <trkpt lon="101.014400" lat="15.295693">
                <ele>132.318603</ele>
                <time>2009-12-19T08:03:03Z</time>
            </trkpt>
            <trkpt lon="101.014195" lat="15.294860">
                <ele>135.683106</ele>
                <time>2009-12-19T08:03:44Z</time>
            </trkpt>
            <trkpt lon="101.014259" lat="15.294344">
                <ele>131.357300</ele>
                <time>2009-12-19T08:04:12Z</time>
            </trkpt>
            <trkpt lon="101.014949" lat="15.293528">
                <ele>140.489868</ele>
                <time>2009-12-19T08:04:52Z</time>
            </trkpt>
            <trkpt lon="101.015441" lat="15.292936">
                <ele>139.047852</ele>
                <time>2009-12-19T08:05:16Z</time>
            </trkpt>
            <trkpt lon="101.015603" lat="15.292815">
                <ele>136.163940</ele>
                <time>2009-12-19T08:05:21Z</time>
            </trkpt>
            <trkpt lon="101.015924" lat="15.292761">
                <ele>132.318603</ele>
                <time>2009-12-19T08:05:27Z</time>
            </trkpt>
            <trkpt lon="101.016502" lat="15.292408">
                <ele>133.279907</ele>
                <time>2009-12-19T08:05:39Z</time>
            </trkpt>
            <trkpt lon="101.016800" lat="15.292279">
                <ele>130.876709</ele>
                <time>2009-12-19T08:05:44Z</time>
            </trkpt>
            <trkpt lon="101.017404" lat="15.291687">
                <ele>128.473389</ele>
                <time>2009-12-19T08:06:04Z</time>
            </trkpt>
            <trkpt lon="101.017835" lat="15.291531">
                <ele>128.954102</ele>
                <time>2009-12-19T08:06:24Z</time>
            </trkpt>
            <trkpt lon="101.018125" lat="15.291202">
                <ele>126.550659</ele>
                <time>2009-12-19T08:06:37Z</time>
            </trkpt>
            <trkpt lon="101.018150" lat="15.290912">
                <ele>127.511963</ele>
                <time>2009-12-19T08:06:50Z</time>
            </trkpt>
            <trkpt lon="101.017661" lat="15.289739">
                <ele>136.644653</ele>
                <time>2009-12-19T08:07:49Z</time>
            </trkpt>
            <trkpt lon="101.017861" lat="15.288950">
                <ele>138.086548</ele>
                <time>2009-12-19T08:08:16Z</time>
            </trkpt>
            <trkpt lon="101.017694" lat="15.288466">
                <ele>143.373657</ele>
                <time>2009-12-19T08:08:43Z</time>
            </trkpt>
            <trkpt lon="101.018546" lat="15.287124">
                <ele>140.970459</ele>
                <time>2009-12-19T08:09:33Z</time>
            </trkpt>
            <trkpt lon="101.018490" lat="15.286439">
                <ele>140.970459</ele>
                <time>2009-12-19T08:09:51Z</time>
            </trkpt>
            <trkpt lon="101.018486" lat="15.286396">
                <ele>140.489868</ele>
                <time>2009-12-19T08:09:52Z</time>
            </trkpt>
            <trkpt lon="101.017645" lat="15.285065">
                <ele>153.948364</ele>
                <time>2009-12-19T08:11:32Z</time>
            </trkpt>
            <trkpt lon="101.017478" lat="15.284504">
                <ele>156.351562</ele>
                <time>2009-12-19T08:12:00Z</time>
            </trkpt>
            <trkpt lon="101.017220" lat="15.284344">
                <ele>158.274170</ele>
                <time>2009-12-19T08:12:14Z</time>
            </trkpt>
            <trkpt lon="101.017045" lat="15.283694">
                <ele>158.274170</ele>
                <time>2009-12-19T08:12:34Z</time>
            </trkpt>
            <trkpt lon="101.016610" lat="15.281149">
                <ele>152.025757</ele>
                <time>2009-12-19T08:14:04Z</time>
            </trkpt>
            <trkpt lon="101.016575" lat="15.280303">
                <ele>148.661011</ele>
                <time>2009-12-19T08:15:07Z</time>
            </trkpt>
            <trkpt lon="101.016369" lat="15.279960">
                <ele>147.699707</ele>
                <time>2009-12-19T08:15:14Z</time>
            </trkpt>
            <trkpt lon="101.016349" lat="15.279369">
                <ele>145.777100</ele>
                <time>2009-12-19T08:15:24Z</time>
            </trkpt>
            <trkpt lon="101.016572" lat="15.278841">
                <ele>142.412476</ele>
                <time>2009-12-19T08:15:39Z</time>
            </trkpt>
            <trkpt lon="101.017127" lat="15.278499">
                <ele>142.412476</ele>
                <time>2009-12-19T08:15:52Z</time>
            </trkpt>
            <trkpt lon="101.018059" lat="15.278409">
                <ele>142.412476</ele>
                <time>2009-12-19T08:16:12Z</time>
            </trkpt>
            <trkpt lon="101.018269" lat="15.277996">
                <ele>140.489868</ele>
                <time>2009-12-19T08:16:22Z</time>
            </trkpt>
            <trkpt lon="101.018501" lat="15.277898">
                <ele>140.489868</ele>
                <time>2009-12-19T08:16:26Z</time>
            </trkpt>
            <trkpt lon="101.020032" lat="15.278510">
                <ele>131.357300</ele>
                <time>2009-12-19T08:17:03Z</time>
            </trkpt>
            <trkpt lon="101.020658" lat="15.278582">
                <ele>128.473389</ele>
                <time>2009-12-19T08:17:36Z</time>
            </trkpt>
            <trkpt lon="101.019797" lat="15.278427">
                <ele>133.279907</ele>
                <time>2009-12-19T08:18:11Z</time>
            </trkpt>
            <trkpt lon="101.019724" lat="15.277537">
                <ele>126.069946</ele>
                <time>2009-12-19T08:18:46Z</time>
            </trkpt>
            <trkpt lon="101.023836" lat="15.277691">
                <ele>122.224731</ele>
                <time>2009-12-19T08:19:45Z</time>
            </trkpt>
            <trkpt lon="101.023808" lat="15.276483">
                <ele>126.550659</ele>
                <time>2009-12-19T08:20:18Z</time>
            </trkpt>
            <trkpt lon="101.023932" lat="15.273763">
                <ele>125.589355</ele>
                <time>2009-12-19T08:21:05Z</time>
            </trkpt>
            <trkpt lon="101.024049" lat="15.273624">
                <ele>126.069946</ele>
                <time>2009-12-19T08:21:10Z</time>
            </trkpt>
            <trkpt lon="101.025604" lat="15.273743">
                <ele>123.186157</ele>
                <time>2009-12-19T08:21:38Z</time>
            </trkpt>
            <trkpt lon="101.027264" lat="15.273677">
                <ele>132.318603</ele>
                <time>2009-12-19T08:22:33Z</time>
            </trkpt>
            <trkpt lon="101.028794" lat="15.274279">
                <ele>140.489868</ele>
                <time>2009-12-19T08:23:30Z</time>
            </trkpt>
            <trkpt lon="101.029838" lat="15.274215">
                <ele>137.125244</ele>
                <time>2009-12-19T08:23:56Z</time>
            </trkpt>
            <trkpt lon="101.031406" lat="15.274564">
                <ele>130.395996</ele>
                <time>2009-12-19T08:24:24Z</time>
            </trkpt>
            <trkpt lon="101.032026" lat="15.276015">
                <ele>134.241211</ele>
                <time>2009-12-19T08:24:58Z</time>
            </trkpt>
            <trkpt lon="101.032162" lat="15.276168">
                <ele>134.241211</ele>
                <time>2009-12-19T08:25:03Z</time>
            </trkpt>
            <trkpt lon="101.032462" lat="15.276532">
                <ele>130.876709</ele>
                <time>2009-12-19T08:25:15Z</time>
            </trkpt>
            <trkpt lon="101.032340" lat="15.276655">
                <ele>129.434692</ele>
                <time>2009-12-19T08:25:31Z</time>
            </trkpt>
            <trkpt lon="101.033565" lat="15.276055">
                <ele>126.550659</ele>
                <time>2009-12-19T08:26:04Z</time>
            </trkpt>
            <trkpt lon="101.033938" lat="15.275751">
                <ele>125.589355</ele>
                <time>2009-12-19T08:26:12Z</time>
            </trkpt>
            <trkpt lon="101.036241" lat="15.274944">
                <ele>123.186157</ele>
                <time>2009-12-19T08:26:46Z</time>
            </trkpt>
            <trkpt lon="101.039013" lat="15.274465">
                <ele>119.821411</ele>
                <time>2009-12-19T08:27:31Z</time>
            </trkpt>
            <trkpt lon="101.039380" lat="15.274361">
                <ele>117.418213</ele>
                <time>2009-12-19T08:27:38Z</time>
            </trkpt>
            <trkpt lon="101.039601" lat="15.274192">
                <ele>115.976196</ele>
                <time>2009-12-19T08:27:42Z</time>
            </trkpt>
            <trkpt lon="101.040141" lat="15.273305">
                <ele>116.456787</ele>
                <time>2009-12-19T08:27:59Z</time>
            </trkpt>
            <trkpt lon="101.040476" lat="15.272439">
                <ele>112.130981</ele>
                <time>2009-12-19T08:28:13Z</time>
            </trkpt>
            <trkpt lon="101.041351" lat="15.271874">
                <ele>113.092285</ele>
                <time>2009-12-19T08:28:29Z</time>
            </trkpt>
            <trkpt lon="101.042213" lat="15.270828">
                <ele>108.766235</ele>
                <time>2009-12-19T08:28:46Z</time>
            </trkpt>
            <trkpt lon="101.043863" lat="15.269680">
                <ele>104.440430</ele>
                <time>2009-12-19T08:29:11Z</time>
            </trkpt>
            <trkpt lon="101.047786" lat="15.267733">
                <ele>92.423950</ele>
                <time>2009-12-19T08:30:14Z</time>
            </trkpt>
            <trkpt lon="101.049733" lat="15.262945">
                <ele>94.827148</ele>
                <time>2009-12-19T08:31:53Z</time>
            </trkpt>
            <trkpt lon="101.050407" lat="15.262057">
                <ele>89.059326</ele>
                <time>2009-12-19T08:32:10Z</time>
            </trkpt>
            <trkpt lon="101.050793" lat="15.261218">
                <ele>89.539917</ele>
                <time>2009-12-19T08:32:33Z</time>
            </trkpt>
            <trkpt lon="101.050744" lat="15.261340">
                <ele>90.981934</ele>
                <time>2009-12-19T08:32:43Z</time>
            </trkpt>
            <trkpt lon="101.052732" lat="15.262464">
                <ele>89.059326</ele>
                <time>2009-12-19T08:47:46Z</time>
            </trkpt>
            <trkpt lon="101.054226" lat="15.263403">
                <ele>86.656006</ele>
                <time>2009-12-19T08:48:22Z</time>
            </trkpt>
            <trkpt lon="101.057520" lat="15.264982">
                <ele>82.810791</ele>
                <time>2009-12-19T08:49:15Z</time>
            </trkpt>
            <trkpt lon="101.058878" lat="15.266261">
                <ele>84.252685</ele>
                <time>2009-12-19T08:49:45Z</time>
            </trkpt>
            <trkpt lon="101.062918" lat="15.269909">
                <ele>77.042847</ele>
                <time>2009-12-19T08:51:06Z</time>
            </trkpt>
            <trkpt lon="101.063459" lat="15.270618">
                <ele>77.523438</ele>
                <time>2009-12-19T08:51:21Z</time>
            </trkpt>
            <trkpt lon="101.065018" lat="15.271795">
                <ele>76.562134</ele>
                <time>2009-12-19T08:51:51Z</time>
            </trkpt>
            <trkpt lon="101.065472" lat="15.272309">
                <ele>77.523438</ele>
                <time>2009-12-19T08:52:02Z</time>
            </trkpt>
            <trkpt lon="101.065979" lat="15.272377">
                <ele>89.059326</ele>
                <time>2009-12-19T08:54:01Z</time>
            </trkpt>
            <trkpt lon="101.065975" lat="15.272510">
                <ele>86.175293</ele>
                <time>2009-12-19T08:54:17Z</time>
            </trkpt>
            <trkpt lon="101.065979" lat="15.272369">
                <ele>84.733398</ele>
                <time>2009-12-19T08:54:28Z</time>
            </trkpt>
            <trkpt lon="101.066549" lat="15.272396">
                <ele>87.136597</ele>
                <time>2009-12-19T08:55:38Z</time>
            </trkpt>
            <trkpt lon="101.067144" lat="15.272655">
                <ele>88.578735</ele>
                <time>2009-12-19T08:56:03Z</time>
            </trkpt>
            <trkpt lon="101.068983" lat="15.273013">
                <ele>75.600830</ele>
                <time>2009-12-19T08:56:47Z</time>
            </trkpt>
            <trkpt lon="101.069057" lat="15.272779">
                <ele>74.158813</ele>
                <time>2009-12-19T08:57:05Z</time>
            </trkpt>
            <trkpt lon="101.069722" lat="15.272125">
                <ele>74.639526</ele>
                <time>2009-12-19T08:57:22Z</time>
            </trkpt>
            <trkpt lon="101.070545" lat="15.268791">
                <ele>73.678223</ele>
                <time>2009-12-19T08:58:12Z</time>
            </trkpt>
            <trkpt lon="101.070929" lat="15.266132">
                <ele>72.716919</ele>
                <time>2009-12-19T08:58:51Z</time>
            </trkpt>
            <trkpt lon="101.071261" lat="15.265821">
                <ele>72.236206</ele>
                <time>2009-12-19T08:58:59Z</time>
            </trkpt>
            <trkpt lon="101.072379" lat="15.265598">
                <ele>72.236206</ele>
                <time>2009-12-19T08:59:17Z</time>
            </trkpt>
            <trkpt lon="101.074202" lat="15.265230">
                <ele>71.274902</ele>
                <time>2009-12-19T08:59:46Z</time>
            </trkpt>
            <trkpt lon="101.074557" lat="15.264923">
                <ele>71.274902</ele>
                <time>2009-12-19T08:59:54Z</time>
            </trkpt>
            <trkpt lon="101.074783" lat="15.264139">
                <ele>70.794190</ele>
                <time>2009-12-19T09:00:08Z</time>
            </trkpt>
            <trkpt lon="101.075314" lat="15.260136">
                <ele>72.236206</ele>
                <time>2009-12-19T09:01:13Z</time>
            </trkpt>
            <trkpt lon="101.075664" lat="15.259835">
                <ele>71.274902</ele>
                <time>2009-12-19T09:01:21Z</time>
            </trkpt>
            <trkpt lon="101.077955" lat="15.259408">
                <ele>74.158813</ele>
                <time>2009-12-19T09:02:14Z</time>
            </trkpt>
            <trkpt lon="101.080211" lat="15.258650">
                <ele>72.236206</ele>
                <time>2009-12-19T09:02:51Z</time>
            </trkpt>
            <trkpt lon="101.085215" lat="15.256041">
                <ele>64.545654</ele>
                <time>2009-12-19T09:04:11Z</time>
            </trkpt>
            <trkpt lon="101.086489" lat="15.255499">
                <ele>64.065063</ele>
                <time>2009-12-19T09:04:35Z</time>
            </trkpt>
            <trkpt lon="101.092297" lat="15.254597">
                <ele>63.103638</ele>
                <time>2009-12-19T09:06:20Z</time>
            </trkpt>
            <trkpt lon="101.095039" lat="15.254427">
                <ele>76.081421</ele>
                <time>2009-12-19T09:07:56Z</time>
            </trkpt>
            <trkpt lon="101.095378" lat="15.254241">
                <ele>76.562134</ele>
                <time>2009-12-19T09:08:10Z</time>
            </trkpt>
            <trkpt lon="101.095591" lat="15.254152">
                <ele>76.081421</ele>
                <time>2009-12-19T09:08:15Z</time>
            </trkpt>
            <trkpt lon="101.098637" lat="15.254251">
                <ele>80.407471</ele>
                <time>2009-12-19T09:09:22Z</time>
            </trkpt>
            <trkpt lon="101.101763" lat="15.254410">
                <ele>80.888184</ele>
                <time>2009-12-19T09:10:27Z</time>
            </trkpt>
            <trkpt lon="101.102424" lat="15.254360">
                <ele>82.330078</ele>
                <time>2009-12-19T09:10:44Z</time>
            </trkpt>
            <trkpt lon="101.102500" lat="15.254167">
                <ele>82.810791</ele>
                <time>2009-12-19T09:10:50Z</time>
            </trkpt>
            <trkpt lon="101.102706" lat="15.250430">
                <ele>70.313477</ele>
                <time>2009-12-19T09:11:38Z</time>
            </trkpt>
            <trkpt lon="101.102743" lat="15.250127">
                <ele>69.832886</ele>
                <time>2009-12-19T09:11:42Z</time>
            </trkpt>
            <trkpt lon="101.103000" lat="15.249968">
                <ele>69.352295</ele>
                <time>2009-12-19T09:11:48Z</time>
            </trkpt>
            <trkpt lon="101.108925" lat="15.250326">
                <ele>83.291382</ele>
                <time>2009-12-19T09:14:19Z</time>
            </trkpt>
            <trkpt lon="101.112058" lat="15.250522">
                <ele>83.291382</ele>
                <time>2009-12-19T09:15:23Z</time>
            </trkpt>
            <trkpt lon="101.114769" lat="15.250656">
                <ele>81.368774</ele>
                <time>2009-12-19T09:16:08Z</time>
            </trkpt>
            <trkpt lon="101.117134" lat="15.250826">
                <ele>82.330078</ele>
                <time>2009-12-19T09:16:48Z</time>
            </trkpt>
            <trkpt lon="101.122845" lat="15.251116">
                <ele>101.075684</ele>
                <time>2009-12-19T09:19:10Z</time>
            </trkpt>
            <trkpt lon="101.125422" lat="15.251292">
                <ele>108.285645</ele>
                <time>2009-12-19T09:20:12Z</time>
            </trkpt>
            <trkpt lon="101.124988" lat="15.259575">
                <ele>120.782837</ele>
                <time>2009-12-19T09:23:00Z</time>
            </trkpt>
            <trkpt lon="101.124945" lat="15.260634">
                <ele>120.782837</ele>
                <time>2009-12-19T09:23:23Z</time>
            </trkpt>
            <trkpt lon="101.125116" lat="15.260396">
                <ele>119.821411</ele>
                <time>2009-12-19T09:23:28Z</time>
            </trkpt>
            <trkpt lon="101.123987" lat="15.260665">
                <ele>114.053589</ele>
                <time>2009-12-19T09:23:38Z</time>
            </trkpt>
            <trkpt lon="101.119888" lat="15.260332">
                <ele>95.307739</ele>
                <time>2009-12-19T09:24:17Z</time>
            </trkpt>
            <trkpt lon="101.119679" lat="15.260775">
                <ele>92.904541</ele>
                <time>2009-12-19T09:24:24Z</time>
            </trkpt>
            <trkpt lon="101.119707" lat="15.263538">
                <ele>102.998291</ele>
                <time>2009-12-19T09:25:20Z</time>
            </trkpt>
            <trkpt lon="101.119697" lat="15.263884">
                <ele>102.998291</ele>
                <time>2009-12-19T09:25:28Z</time>
            </trkpt>
            <trkpt lon="101.119408" lat="15.264192">
                <ele>101.556397</ele>
                <time>2009-12-19T09:25:36Z</time>
            </trkpt>
            <trkpt lon="101.118094" lat="15.264373">
                <ele>98.191895</ele>
                <time>2009-12-19T09:25:52Z</time>
            </trkpt>
            <trkpt lon="101.117347" lat="15.264168">
                <ele>99.153076</ele>
                <time>2009-12-19T09:26:06Z</time>
            </trkpt>
            <trkpt lon="101.117378" lat="15.264012">
                <ele>99.153076</ele>
                <time>2009-12-19T09:26:12Z</time>
            </trkpt>
            <trkpt lon="101.117781" lat="15.263657">
                <ele>100.595093</ele>
                <time>2009-12-19T09:26:42Z</time>
            </trkpt>
        </trkseg>
    </trk>
</gpx>